sensor_id;sensor_type;location;lat;lon;timestamp;P1;P2;P0
79038;PMS5003;68436;55.068;73.284;2024-03-07T00:00:07;26.25;19.75;10.75
79038;PMS5003;68436;55.068;73.284;2024-03-07T00:02:41;41.00;30.00;16.00
79038;PMS5003;68436;55.068;73.284;2024-03-07T00:05:07;37.25;26.50;14.50
79038;PMS5003;68436;55.068;73.284;2024-03-07T00:07:39;40.00;31.00;15.00
79038;PMS5003;68436;55.068;73.284;2024-03-07T00:10:06;37.00;27.00;15.50
79038;PMS5003;68436;55.068;73.284;2024-03-07T00:12:40;33.50;26.00;15.00
79038;PMS5003;68436;55.068;73.284;2024-03-07T00:15:09;39.00;28.00;15.75
79038;PMS5003;68436;55.068;73.284;2024-03-07T00:17:40;18.00;14.00;8.00
79038;PMS5003;68436;55.068;73.284;2024-03-07T00:20:06;26.50;20.50;12.00
79038;PMS5003;68436;55.068;73.284;2024-03-07T00:22:42;30.00;19.50;9.50
79038;PMS5003;68436;55.068;73.284;2024-03-07T00:25:10;22.50;17.50;10.00
79038;PMS5003;68436;55.068;73.284;2024-03-07T00:27:39;31.50;24.50;12.50
79038;PMS5003;68436;55.068;73.284;2024-03-07T00:30:06;41.00;28.50;13.25
79038;PMS5003;68436;55.068;73.284;2024-03-07T00:32:39;33.50;24.00;12.50
79038;PMS5003;68436;55.068;73.284;2024-03-07T00:35:06;25.00;20.00;10.00
79038;PMS5003;68436;55.068;73.284;2024-03-07T00:37:39;17.00;12.00;7.33
79038;PMS5003;68436;55.068;73.284;2024-03-07T00:40:06;38.75;28.00;15.25
79038;PMS5003;68436;55.068;73.284;2024-03-07T00:42:39;28.00;19.67;10.00
79038;PMS5003;68436;55.068;73.284;2024-03-07T00:45:05;15.00;11.00;6.00
79038;PMS5003;68436;55.068;73.284;2024-03-07T00:47:39;8.00;7.00;4.00
79038;PMS5003;68436;55.068;73.284;2024-03-07T00:50:24;10.00;7.75;5.00
79038;PMS5003;68436;55.068;73.284;2024-03-07T00:52:51;13.00;10.00;5.00
79038;PMS5003;68436;55.068;73.284;2024-03-07T00:55:17;13.75;11.00;6.00
79038;PMS5003;68436;55.068;73.284;2024-03-07T00:57:43;6.75;5.25;3.25
79038;PMS5003;68436;55.068;73.284;2024-03-07T01:00:11;9.50;8.00;4.00
79038;PMS5003;68436;55.068;73.284;2024-03-07T01:02:40;9.00;8.00;5.00
79038;PMS5003;68436;55.068;73.284;2024-03-07T01:05:09;9.00;8.00;5.00
79038;PMS5003;68436;55.068;73.284;2024-03-07T01:07:43;8.75;8.00;6.00
79038;PMS5003;68436;55.068;73.284;2024-03-07T01:10:10;8.50;7.00;4.00
79038;PMS5003;68436;55.068;73.284;2024-03-07T01:12:40;9.00;7.00;4.00
79038;PMS5003;68436;55.068;73.284;2024-03-07T01:15:06;7.00;6.00;3.75
79038;PMS5003;68436;55.068;73.284;2024-03-07T01:17:39;10.00;9.00;5.00
79038;PMS5003;68436;55.068;73.284;2024-03-07T01:20:06;8.50;7.25;4.00
79038;PMS5003;68436;55.068;73.284;2024-03-07T01:22:39;10.00;9.00;5.00
79038;PMS5003;68436;55.068;73.284;2024-03-07T01:25:05;9.00;8.00;4.50
79038;PMS5003;68436;55.068;73.284;2024-03-07T01:27:39;9.67;8.00;5.00
79038;PMS5003;68436;55.068;73.284;2024-03-07T01:30:06;10.00;8.00;4.00
79038;PMS5003;68436;55.068;73.284;2024-03-07T01:32:39;8.00;7.00;5.00
79038;PMS5003;68436;55.068;73.284;2024-03-07T01:35:06;6.25;6.00;3.50
79038;PMS5003;68436;55.068;73.284;2024-03-07T01:37:39;15.00;11.00;7.00
79038;PMS5003;68436;55.068;73.284;2024-03-07T01:40:06;8.00;7.00;4.00
79038;PMS5003;68436;55.068;73.284;2024-03-07T01:42:40;9.00;8.00;5.00
79038;PMS5003;68436;55.068;73.284;2024-03-07T01:45:06;14.00;10.00;6.00
79038;PMS5003;68436;55.068;73.284;2024-03-07T01:47:39;7.00;6.00;4.00
79038;PMS5003;68436;55.068;73.284;2024-03-07T01:50:06;11.75;9.50;6.50
79038;PMS5003;68436;55.068;73.284;2024-03-07T01:52:40;12.00;9.00;5.00
79038;PMS5003;68436;55.068;73.284;2024-03-07T01:55:07;8.75;8.00;4.50
79038;PMS5003;68436;55.068;73.284;2024-03-07T01:57:39;11.00;9.00;5.00
79038;PMS5003;68436;55.068;73.284;2024-03-07T02:00:06;13.00;10.00;6.00
79038;PMS5003;68436;55.068;73.284;2024-03-07T02:02:39;9.00;8.00;5.00
79038;PMS5003;68436;55.068;73.284;2024-03-07T02:05:06;7.00;6.00;4.00
79038;PMS5003;68436;55.068;73.284;2024-03-07T02:07:39;9.00;6.67;5.00
79038;PMS5003;68436;55.068;73.284;2024-03-07T02:10:06;8.00;7.00;5.00
79038;PMS5003;68436;55.068;73.284;2024-03-07T02:12:39;11.00;10.00;5.67
79038;PMS5003;68436;55.068;73.284;2024-03-07T02:15:05;10.25;8.00;5.00
79038;PMS5003;68436;55.068;73.284;2024-03-07T02:17:39;10.00;9.00;5.00
79038;PMS5003;68436;55.068;73.284;2024-03-07T02:20:06;11.00;9.00;5.75
79038;PMS5003;68436;55.068;73.284;2024-03-07T02:22:39;10.00;9.00;6.00
79038;PMS5003;68436;55.068;73.284;2024-03-07T02:25:06;10.00;9.00;6.00
79038;PMS5003;68436;55.068;73.284;2024-03-07T02:27:39;10.00;8.00;4.50
79038;PMS5003;68436;55.068;73.284;2024-03-07T02:30:05;8.00;7.00;4.00
79038;PMS5003;68436;55.068;73.284;2024-03-07T02:32:39;7.00;6.00;4.00
79038;PMS5003;68436;55.068;73.284;2024-03-07T02:35:06;8.00;6.00;3.50
79038;PMS5003;68436;55.068;73.284;2024-03-07T02:37:39;5.50;5.00;2.00
79038;PMS5003;68436;55.068;73.284;2024-03-07T02:40:06;8.50;7.00;4.00
79038;PMS5003;68436;55.068;73.284;2024-03-07T02:42:39;9.00;7.50;4.00
79038;PMS5003;68436;55.068;73.284;2024-03-07T02:45:06;7.25;6.25;4.00
79038;PMS5003;68436;55.068;73.284;2024-03-07T02:47:39;7.33;7.00;3.67
79038;PMS5003;68436;55.068;73.284;2024-03-07T02:50:08;10.50;9.25;6.00
79038;PMS5003;68436;55.068;73.284;2024-03-07T02:52:39;10.00;8.00;6.00
79038;PMS5003;68436;55.068;73.284;2024-03-07T02:55:06;13.25;10.25;6.00
79038;PMS5003;68436;55.068;73.284;2024-03-07T02:57:39;11.00;10.00;6.00
79038;PMS5003;68436;55.068;73.284;2024-03-07T03:00:06;6.25;6.00;3.50
79038;PMS5003;68436;55.068;73.284;2024-03-07T03:02:46;8.00;7.00;4.00
79038;PMS5003;68436;55.068;73.284;2024-03-07T03:05:13;8.25;7.00;4.00
79038;PMS5003;68436;55.068;73.284;2024-03-07T03:07:40;8.00;5.00;3.00
79038;PMS5003;68436;55.068;73.284;2024-03-07T03:10:06;7.50;6.00;4.00
79038;PMS5003;68436;55.068;73.284;2024-03-07T03:12:39;9.00;8.00;5.00
79038;PMS5003;68436;55.068;73.284;2024-03-07T03:15:06;8.00;7.00;5.00
79038;PMS5003;68436;55.068;73.284;2024-03-07T03:17:39;5.50;5.00;4.00
79038;PMS5003;68436;55.068;73.284;2024-03-07T03:20:05;7.00;6.00;4.00
79038;PMS5003;68436;55.068;73.284;2024-03-07T03:22:53;9.00;7.67;4.00
79038;PMS5003;68436;55.068;73.284;2024-03-07T03:25:19;8.00;7.00;5.00
79038;PMS5003;68436;55.068;73.284;2024-03-07T03:27:49;5.00;5.00;3.00
79038;PMS5003;68436;55.068;73.284;2024-03-07T03:30:15;9.75;7.75;4.25
79038;PMS5003;68436;55.068;73.284;2024-03-07T03:32:44;6.00;5.20;3.00
79038;PMS5003;68436;55.068;73.284;2024-03-07T03:35:11;7.75;7.00;4.50
79038;PMS5003;68436;55.068;73.284;2024-03-07T03:37:40;13.50;11.00;6.00
79038;PMS5003;68436;55.068;73.284;2024-03-07T03:40:07;7.00;6.00;4.00
79038;PMS5003;68436;55.068;73.284;2024-03-07T03:42:40;6.50;4.50;3.00
79038;PMS5003;68436;55.068;73.284;2024-03-07T03:45:07;6.00;5.00;3.50
79038;PMS5003;68436;55.068;73.284;2024-03-07T03:47:39;5.00;5.00;3.00
79038;PMS5003;68436;55.068;73.284;2024-03-07T03:50:06;9.00;8.00;4.00
79038;PMS5003;68436;55.068;73.284;2024-03-07T03:52:39;9.00;8.00;4.00
79038;PMS5003;68436;55.068;73.284;2024-03-07T03:55:06;9.00;8.00;4.00
79038;PMS5003;68436;55.068;73.284;2024-03-07T03:57:40;6.00;5.50;3.50
79038;PMS5003;68436;55.068;73.284;2024-03-07T04:00:06;9.00;6.25;3.00
79038;PMS5003;68436;55.068;73.284;2024-03-07T04:02:40;5.00;4.00;2.00
79038;PMS5003;68436;55.068;73.284;2024-03-07T04:05:06;6.50;5.75;3.00
79038;PMS5003;68436;55.068;73.284;2024-03-07T04:07:40;8.00;6.50;4.00
79038;PMS5003;68436;55.068;73.284;2024-03-07T04:10:07;9.00;8.00;4.00
79038;PMS5003;68436;55.068;73.284;2024-03-07T04:12:40;11.00;9.00;5.00
79038;PMS5003;68436;55.068;73.284;2024-03-07T04:15:24;6.75;5.75;4.00
79038;PMS5003;68436;55.068;73.284;2024-03-07T04:17:52;9.00;7.00;4.00
79038;PMS5003;68436;55.068;73.284;2024-03-07T04:20:19;6.00;6.00;4.00
79038;PMS5003;68436;55.068;73.284;2024-03-07T04:22:45;13.00;10.00;6.00
79038;PMS5003;68436;55.068;73.284;2024-03-07T04:25:12;10.00;9.00;6.00
79038;PMS5003;68436;55.068;73.284;2024-03-07T04:27:39;13.00;11.00;7.00
79038;PMS5003;68436;55.068;73.284;2024-03-07T04:30:06;11.00;9.00;6.00
79038;PMS5003;68436;55.068;73.284;2024-03-07T04:32:39;13.00;11.00;6.00
79038;PMS5003;68436;55.068;73.284;2024-03-07T04:35:07;8.25;7.00;4.25
79038;PMS5003;68436;55.068;73.284;2024-03-07T04:37:39;8.00;7.00;5.00
79038;PMS5003;68436;55.068;73.284;2024-03-07T04:40:07;14.00;11.00;5.00
79038;PMS5003;68436;55.068;73.284;2024-03-07T04:42:41;19.50;17.00;11.50
79038;PMS5003;68436;55.068;73.284;2024-03-07T04:45:08;17.50;16.00;10.00
79038;PMS5003;68436;55.068;73.284;2024-03-07T04:47:40;9.50;8.00;5.50
79038;PMS5003;68436;55.068;73.284;2024-03-07T04:50:08;12.25;10.00;7.00
79038;PMS5003;68436;55.068;73.284;2024-03-07T04:52:39;25.00;19.00;13.50
79038;PMS5003;68436;55.068;73.284;2024-03-07T04:55:06;25.00;21.00;11.25
79038;PMS5003;68436;55.068;73.284;2024-03-07T04:57:39;18.50;14.50;8.00
79038;PMS5003;68436;55.068;73.284;2024-03-07T05:00:07;29.75;25.75;17.25
79038;PMS5003;68436;55.068;73.284;2024-03-07T05:02:40;38.50;31.50;20.50
79038;PMS5003;68436;55.068;73.284;2024-03-07T05:05:06;35.00;28.75;19.00
79038;PMS5003;68436;55.068;73.284;2024-03-07T05:07:39;16.00;13.00;8.00
79038;PMS5003;68436;55.068;73.284;2024-03-07T05:10:06;11.00;8.00;6.00
79038;PMS5003;68436;55.068;73.284;2024-03-07T05:12:39;12.00;9.50;6.00
79038;PMS5003;68436;55.068;73.284;2024-03-07T05:15:06;11.00;9.00;6.00
79038;PMS5003;68436;55.068;73.284;2024-03-07T05:17:39;7.33;6.33;4.00
79038;PMS5003;68436;55.068;73.284;2024-03-07T05:20:08;13.00;10.75;6.50
79038;PMS5003;68436;55.068;73.284;2024-03-07T05:22:39;10.00;9.00;5.00
79038;PMS5003;68436;55.068;73.284;2024-03-07T05:25:18;13.00;11.00;6.00
79038;PMS5003;68436;55.068;73.284;2024-03-07T05:27:48;9.25;7.75;4.00
79038;PMS5003;68436;55.068;73.284;2024-03-07T05:30:17;9.25;7.25;4.00
79038;PMS5003;68436;55.068;73.284;2024-03-07T05:32:43;16.00;12.00;7.00
79038;PMS5003;68436;55.068;73.284;2024-03-07T05:35:09;9.25;7.25;4.25
79038;PMS5003;68436;55.068;73.284;2024-03-07T05:37:39;9.00;7.50;5.00
79038;PMS5003;68436;55.068;73.284;2024-03-07T05:40:13;10.00;9.00;6.00
79038;PMS5003;68436;55.068;73.284;2024-03-07T05:42:39;6.00;5.50;4.00
79038;PMS5003;68436;55.068;73.284;2024-03-07T05:45:05;9.00;7.75;4.25
79038;PMS5003;68436;55.068;73.284;2024-03-07T05:47:39;9.00;8.00;3.00
79038;PMS5003;68436;55.068;73.284;2024-03-07T05:50:06;12.50;9.75;6.25
79038;PMS5003;68436;55.068;73.284;2024-03-07T05:52:39;36.00;29.00;16.00
79038;PMS5003;68436;55.068;73.284;2024-03-07T05:55:05;13.00;11.00;7.25
79038;PMS5003;68436;55.068;73.284;2024-03-07T05:57:39;9.00;7.00;4.00
79038;PMS5003;68436;55.068;73.284;2024-03-07T06:00:05;8.50;7.25;5.00
79038;PMS5003;68436;55.068;73.284;2024-03-07T06:02:39;8.00;7.00;5.00
79038;PMS5003;68436;55.068;73.284;2024-03-07T06:05:06;10.00;7.00;4.00
79038;PMS5003;68436;55.068;73.284;2024-03-07T06:07:39;6.00;5.00;3.00
79038;PMS5003;68436;55.068;73.284;2024-03-07T06:10:06;9.00;9.00;6.00
79038;PMS5003;68436;55.068;73.284;2024-03-07T06:12:39;8.50;7.00;5.00
79038;PMS5003;68436;55.068;73.284;2024-03-07T06:15:14;9.00;8.00;5.00
79038;PMS5003;68436;55.068;73.284;2024-03-07T06:17:40;12.00;8.00;6.00
79038;PMS5003;68436;55.068;73.284;2024-03-07T06:20:07;10.00;8.50;5.00
79038;PMS5003;68436;55.068;73.284;2024-03-07T06:22:48;7.00;6.00;4.00
79038;PMS5003;68436;55.068;73.284;2024-03-07T06:25:18;9.00;8.00;5.00
79038;PMS5003;68436;55.068;73.284;2024-03-07T06:28:03;10.00;9.00;5.33
79038;PMS5003;68436;55.068;73.284;2024-03-07T06:30:44;10.00;8.25;5.00
79038;PMS5003;68436;55.068;73.284;2024-03-07T06:33:14;18.00;16.00;9.33
79038;PMS5003;68436;55.068;73.284;2024-03-07T06:35:42;8.00;7.50;4.00
79038;PMS5003;68436;55.068;73.284;2024-03-07T06:38:09;8.67;7.33;5.00
79038;PMS5003;68436;55.068;73.284;2024-03-07T06:40:39;8.00;7.00;4.00
79038;PMS5003;68436;55.068;73.284;2024-03-07T06:43:11;10.00;8.00;6.00
79038;PMS5003;68436;55.068;73.284;2024-03-07T06:45:37;9.00;7.00;5.00
79038;PMS5003;68436;55.068;73.284;2024-03-07T06:48:07;11.00;9.00;6.00
79038;PMS5003;68436;55.068;73.284;2024-03-07T06:50:34;10.75;9.50;6.25
79038;PMS5003;68436;55.068;73.284;2024-03-07T06:53:03;12.00;12.00;7.00
79038;PMS5003;68436;55.068;73.284;2024-03-07T06:55:29;10.00;8.50;5.25
79038;PMS5003;68436;55.068;73.284;2024-03-07T06:57:55;21.00;17.00;12.00
79038;PMS5003;68436;55.068;73.284;2024-03-07T07:00:22;29.50;23.00;13.00
79038;PMS5003;68436;55.068;73.284;2024-03-07T07:02:49;9.00;8.00;5.00
79038;PMS5003;68436;55.068;73.284;2024-03-07T07:05:16;27.25;22.50;15.25
79038;PMS5003;68436;55.068;73.284;2024-03-07T07:07:44;6.80;6.00;4.00
79038;PMS5003;68436;55.068;73.284;2024-03-07T07:10:10;11.00;8.25;5.75
79038;PMS5003;68436;55.068;73.284;2024-03-07T07:12:47;14.50;11.75;7.25
79038;PMS5003;68436;55.068;73.284;2024-03-07T07:15:14;8.00;7.00;4.75
79038;PMS5003;68436;55.068;73.284;2024-03-07T07:17:47;8.00;8.00;5.00
79038;PMS5003;68436;55.068;73.284;2024-03-07T07:20:17;7.00;6.00;4.00
79038;PMS5003;68436;55.068;73.284;2024-03-07T07:22:46;9.25;7.50;4.50
79038;PMS5003;68436;55.068;73.284;2024-03-07T07:25:13;6.00;5.75;3.00
79038;PMS5003;68436;55.068;73.284;2024-03-07T07:27:49;11.00;9.00;6.00
79038;PMS5003;68436;55.068;73.284;2024-03-07T07:30:16;17.00;12.00;7.00
79038;PMS5003;68436;55.068;73.284;2024-03-07T07:32:43;6.25;5.50;3.75
79038;PMS5003;68436;55.068;73.284;2024-03-07T07:35:10;9.50;8.00;5.00
79038;PMS5003;68436;55.068;73.284;2024-03-07T07:37:40;9.00;8.00;4.00
79038;PMS5003;68436;55.068;73.284;2024-03-07T07:40:07;12.25;10.00;6.00
79038;PMS5003;68436;55.068;73.284;2024-03-07T07:42:41;11.00;9.00;6.00
79038;PMS5003;68436;55.068;73.284;2024-03-07T07:45:08;12.00;10.00;6.00
79038;PMS5003;68436;55.068;73.284;2024-03-07T07:47:39;12.50;11.00;7.00
79038;PMS5003;68436;55.068;73.284;2024-03-07T07:50:13;12.00;11.00;8.00
79038;PMS5003;68436;55.068;73.284;2024-03-07T07:52:43;9.00;8.00;4.00
79038;PMS5003;68436;55.068;73.284;2024-03-07T07:55:12;18.25;15.00;10.00
79038;PMS5003;68436;55.068;73.284;2024-03-07T07:57:41;13.00;10.50;6.00
79038;PMS5003;68436;55.068;73.284;2024-03-07T08:00:09;7.00;6.00;4.00
79038;PMS5003;68436;55.068;73.284;2024-03-07T08:02:39;20.00;16.00;12.00
79038;PMS5003;68436;55.068;73.284;2024-03-07T08:05:05;8.00;6.00;4.00
79038;PMS5003;68436;55.068;73.284;2024-03-07T08:07:39;8.00;7.67;5.00
79038;PMS5003;68436;55.068;73.284;2024-03-07T08:10:05;9.00;8.00;5.00
79038;PMS5003;68436;55.068;73.284;2024-03-07T08:12:39;6.33;6.00;4.00
79038;PMS5003;68436;55.068;73.284;2024-03-07T08:15:10;9.00;7.00;5.00
79038;PMS5003;68436;55.068;73.284;2024-03-07T08:17:40;11.00;9.00;5.00
79038;PMS5003;68436;55.068;73.284;2024-03-07T08:20:06;9.00;8.00;5.00
79038;PMS5003;68436;55.068;73.284;2024-03-07T08:22:39;8.00;7.00;4.00
79038;PMS5003;68436;55.068;73.284;2024-03-07T08:25:07;9.00;7.25;4.00
79038;PMS5003;68436;55.068;73.284;2024-03-07T08:27:40;10.00;8.00;4.00
79038;PMS5003;68436;55.068;73.284;2024-03-07T08:30:07;11.50;9.50;5.00
79038;PMS5003;68436;55.068;73.284;2024-03-07T08:32:49;9.00;8.00;5.00
79038;PMS5003;68436;55.068;73.284;2024-03-07T08:35:18;12.00;9.75;6.00
79038;PMS5003;68436;55.068;73.284;2024-03-07T08:37:45;17.00;15.00;9.00
79038;PMS5003;68436;55.068;73.284;2024-03-07T08:40:19;7.25;6.50;4.00
79038;PMS5003;68436;55.068;73.284;2024-03-07T08:42:52;10.00;9.00;5.25
79038;PMS5003;68436;55.068;73.284;2024-03-07T08:45:20;11.00;9.75;5.50
79038;PMS5003;68436;55.068;73.284;2024-03-07T08:47:47;8.25;7.00;5.00
79038;PMS5003;68436;55.068;73.284;2024-03-07T08:50:13;8.50;7.50;5.75
79038;PMS5003;68436;55.068;73.284;2024-03-07T08:52:40;17.00;14.00;8.00
79038;PMS5003;68436;55.068;73.284;2024-03-07T08:55:07;9.00;9.00;6.00
79038;PMS5003;68436;55.068;73.284;2024-03-07T08:57:40;15.00;13.00;8.00
79038;PMS5003;68436;55.068;73.284;2024-03-07T09:00:06;14.50;12.50;8.00
79038;PMS5003;68436;55.068;73.284;2024-03-07T09:02:39;8.00;7.00;5.00
79038;PMS5003;68436;55.068;73.284;2024-03-07T09:05:05;9.00;7.75;5.00
79038;PMS5003;68436;55.068;73.284;2024-03-07T09:07:39;24.00;21.00;14.00
79038;PMS5003;68436;55.068;73.284;2024-03-07T09:10:05;9.00;8.00;6.00
79038;PMS5003;68436;55.068;73.284;2024-03-07T09:12:39;7.00;5.00;4.00
79038;PMS5003;68436;55.068;73.284;2024-03-07T09:15:05;11.00;9.75;6.50
79038;PMS5003;68436;55.068;73.284;2024-03-07T09:17:39;6.00;5.67;3.33
79038;PMS5003;68436;55.068;73.284;2024-03-07T09:20:05;16.75;13.75;8.50
79038;PMS5003;68436;55.068;73.284;2024-03-07T09:22:42;8.00;7.33;4.33
79038;PMS5003;68436;55.068;73.284;2024-03-07T09:25:09;11.25;9.00;5.75
79038;PMS5003;68436;55.068;73.284;2024-03-07T09:27:39;11.00;10.00;6.00
79038;PMS5003;68436;55.068;73.284;2024-03-07T09:30:07;10.00;9.00;5.00
79038;PMS5003;68436;55.068;73.284;2024-03-07T09:32:39;18.00;15.00;9.00
79038;PMS5003;68436;55.068;73.284;2024-03-07T09:35:06;11.00;9.50;6.50
79038;PMS5003;68436;55.068;73.284;2024-03-07T09:37:42;11.00;10.00;6.00
79038;PMS5003;68436;55.068;73.284;2024-03-07T09:40:09;11.00;9.00;6.00
79038;PMS5003;68436;55.068;73.284;2024-03-07T09:42:43;11.00;9.50;5.00
79038;PMS5003;68436;55.068;73.284;2024-03-07T09:45:14;11.00;10.00;6.25
79038;PMS5003;68436;55.068;73.284;2024-03-07T09:47:42;11.33;9.33;6.33
79038;PMS5003;68436;55.068;73.284;2024-03-07T09:50:09;12.00;11.00;8.00
79038;PMS5003;68436;55.068;73.284;2024-03-07T09:52:39;8.50;8.00;5.00
79038;PMS5003;68436;55.068;73.284;2024-03-07T09:55:06;13.00;11.00;6.50
79038;PMS5003;68436;55.068;73.284;2024-03-07T09:57:39;10.00;9.00;7.00
79038;PMS5003;68436;55.068;73.284;2024-03-07T10:00:06;10.00;8.25;5.00
79038;PMS5003;68436;55.068;73.284;2024-03-07T10:02:39;11.00;10.00;6.00
79038;PMS5003;68436;55.068;73.284;2024-03-07T10:05:07;10.00;8.00;5.00
79038;PMS5003;68436;55.068;73.284;2024-03-07T10:07:39;10.00;8.50;5.50
79038;PMS5003;68436;55.068;73.284;2024-03-07T10:10:05;10.75;9.25;5.75
79038;PMS5003;68436;55.068;73.284;2024-03-07T10:12:39;9.00;8.00;5.00
79038;PMS5003;68436;55.068;73.284;2024-03-07T10:15:05;12.75;11.00;6.00
79038;PMS5003;68436;55.068;73.284;2024-03-07T10:17:39;8.00;7.00;5.00
79038;PMS5003;68436;55.068;73.284;2024-03-07T10:20:06;11.50;9.75;6.25
79038;PMS5003;68436;55.068;73.284;2024-03-07T10:22:40;11.00;8.00;5.00
79038;PMS5003;68436;55.068;73.284;2024-03-07T10:25:07;14.00;12.25;8.00
79038;PMS5003;68436;55.068;73.284;2024-03-07T10:27:39;11.00;9.00;6.00
79038;PMS5003;68436;55.068;73.284;2024-03-07T10:30:06;21.00;15.00;9.00
79038;PMS5003;68436;55.068;73.284;2024-03-07T10:32:41;19.00;16.00;10.00
79038;PMS5003;68436;55.068;73.284;2024-03-07T10:35:07;16.50;13.00;8.00
79038;PMS5003;68436;55.068;73.284;2024-03-07T10:37:40;23.50;17.00;10.00
79038;PMS5003;68436;55.068;73.284;2024-03-07T10:40:06;22.00;16.00;8.25
79038;PMS5003;68436;55.068;73.284;2024-03-07T10:42:45;13.50;11.50;6.00
79038;PMS5003;68436;55.068;73.284;2024-03-07T10:45:12;13.75;11.50;8.00
79038;PMS5003;68436;55.068;73.284;2024-03-07T10:47:41;25.00;19.67;11.33
79038;PMS5003;68436;55.068;73.284;2024-03-07T11:00:50;24.00;18.50;11.00
79038;PMS5003;68436;55.068;73.284;2024-03-07T11:03:19;14.75;12.25;8.00
79038;PMS5003;68436;55.068;73.284;2024-03-07T11:05:46;9.75;8.00;5.00
79038;PMS5003;68436;55.068;73.284;2024-03-07T11:08:13;22.50;17.50;11.25
79038;PMS5003;68436;55.068;73.284;2024-03-07T11:10:39;15.00;13.00;8.00
79038;PMS5003;68436;55.068;73.284;2024-03-07T11:13:10;12.00;9.00;5.00
79038;PMS5003;68436;55.068;73.284;2024-03-07T11:15:42;21.00;16.75;10.50
79038;PMS5003;68436;55.068;73.284;2024-03-07T11:18:09;22.00;18.00;11.00
79038;PMS5003;68436;55.068;73.284;2024-03-07T11:20:36;15.25;13.00;8.75
79038;PMS5003;68436;55.068;73.284;2024-03-07T11:25:47;17.00;13.00;8.00
79038;PMS5003;68436;55.068;73.284;2024-03-07T11:28:15;14.00;12.00;8.00
79038;PMS5003;68436;55.068;73.284;2024-03-07T11:30:41;14.00;11.25;7.00
79038;PMS5003;68436;55.068;73.284;2024-03-07T11:33:08;12.00;8.67;6.00
79038;PMS5003;68436;55.068;73.284;2024-03-07T11:35:49;10.00;8.00;5.25
79038;PMS5003;68436;55.068;73.284;2024-03-07T11:38:16;13.00;9.00;6.00
79038;PMS5003;68436;55.068;73.284;2024-03-07T11:40:52;9.25;8.75;5.00
79038;PMS5003;68436;55.068;73.284;2024-03-07T11:43:22;12.33;9.67;6.00
79038;PMS5003;68436;55.068;73.284;2024-03-07T11:45:52;11.00;11.00;7.00
79038;PMS5003;68436;55.068;73.284;2024-03-07T11:48:18;9.33;8.00;6.00
79038;PMS5003;68436;55.068;73.284;2024-03-07T11:50:46;10.00;8.00;4.00
79038;PMS5003;68436;55.068;73.284;2024-03-07T11:53:12;9.00;7.00;5.00
79038;PMS5003;68436;55.068;73.284;2024-03-07T11:55:39;12.00;10.50;6.00
79038;PMS5003;68436;55.068;73.284;2024-03-07T12:00:39;11.00;9.00;5.00
79038;PMS5003;68436;55.068;73.284;2024-03-07T12:03:08;10.00;8.33;4.67
79038;PMS5003;68436;55.068;73.284;2024-03-07T12:05:52;14.00;12.75;7.75
79038;PMS5003;68436;55.068;73.284;2024-03-07T12:08:18;12.33;11.00;8.00
79038;PMS5003;68436;55.068;73.284;2024-03-07T12:10:48;17.00;14.00;8.00
79038;PMS5003;68436;55.068;73.284;2024-03-07T12:13:19;15.00;13.00;7.00
79038;PMS5003;68436;55.068;73.284;2024-03-07T12:15:45;16.00;12.25;7.00
79038;PMS5003;68436;55.068;73.284;2024-03-07T12:18:32;14.00;11.00;6.00
79038;PMS5003;68436;55.068;73.284;2024-03-07T12:20:58;15.25;12.75;7.00
79038;PMS5003;68436;55.068;73.284;2024-03-07T12:23:45;14.00;12.00;7.00
79038;PMS5003;68436;55.068;73.284;2024-03-07T12:26:11;15.00;11.00;7.00
79038;PMS5003;68436;55.068;73.284;2024-03-07T12:28:43;27.50;22.50;14.75
79038;PMS5003;68436;55.068;73.284;2024-03-07T12:31:11;7.50;7.00;5.00
79038;PMS5003;68436;55.068;73.284;2024-03-07T12:33:41;11.75;10.00;6.00
79038;PMS5003;68436;55.068;73.284;2024-03-07T12:36:21;10.00;8.50;4.75
79038;PMS5003;68436;55.068;73.284;2024-03-07T12:38:52;12.25;10.00;6.25
79038;PMS5003;68436;55.068;73.284;2024-03-07T12:41:18;13.00;9.75;6.00
79038;PMS5003;68436;55.068;73.284;2024-03-07T12:43:44;9.75;8.50;6.00
79038;PMS5003;68436;55.068;73.284;2024-03-07T12:46:22;22.75;19.75;12.00
79038;PMS5003;68436;55.068;73.284;2024-03-07T12:48:48;15.00;12.33;8.00
79038;PMS5003;68436;55.068;73.284;2024-03-07T12:51:15;16.00;11.00;7.00
79038;PMS5003;68436;55.068;73.284;2024-03-07T12:53:44;12.00;10.00;5.50
79038;PMS5003;68436;55.068;73.284;2024-03-07T12:56:12;9.00;7.00;5.00
79038;PMS5003;68436;55.068;73.284;2024-03-07T12:58:42;11.00;10.00;6.00
79038;PMS5003;68436;55.068;73.284;2024-03-07T13:01:09;12.00;11.00;8.00
79038;PMS5003;68436;55.068;73.284;2024-03-07T13:03:35;15.50;12.50;7.75
79038;PMS5003;68436;55.068;73.284;2024-03-07T13:06:01;16.00;14.75;8.00
79038;PMS5003;68436;55.068;73.284;2024-03-07T13:08:27;14.25;11.00;7.00
79038;PMS5003;68436;55.068;73.284;2024-03-07T13:10:55;19.00;15.00;9.75
79038;PMS5003;68436;55.068;73.284;2024-03-07T13:13:21;13.33;11.67;8.00
79038;PMS5003;68436;55.068;73.284;2024-03-07T13:15:48;57.25;45.00;30.00
79038;PMS5003;68436;55.068;73.284;2024-03-07T13:18:22;71.00;56.67;35.00
79038;PMS5003;68436;55.068;73.284;2024-03-07T13:20:49;142.00;112.75;62.00
79038;PMS5003;68436;55.068;73.284;2024-03-07T13:23:15;97.33;78.33;46.00
79038;PMS5003;68436;55.068;73.284;2024-03-07T13:25:41;53.00;40.00;24.75
79038;PMS5003;68436;55.068;73.284;2024-03-07T13:28:14;67.00;52.00;33.00
79038;PMS5003;68436;55.068;73.284;2024-03-07T13:30:43;46.00;36.00;22.00
79038;PMS5003;68436;55.068;73.284;2024-03-07T13:33:10;40.00;32.00;19.00
79038;PMS5003;68436;55.068;73.284;2024-03-07T13:35:39;42.25;32.00;19.00
79038;PMS5003;68436;55.068;73.284;2024-03-07T13:38:06;41.50;32.50;20.50
79038;PMS5003;68436;55.068;73.284;2024-03-07T13:40:32;33.00;27.25;17.00
79038;PMS5003;68436;55.068;73.284;2024-03-07T13:43:04;34.50;27.00;16.50
79038;PMS5003;68436;55.068;73.284;2024-03-07T13:45:31;41.50;32.75;19.50
79038;PMS5003;68436;55.068;73.284;2024-03-07T13:48:02;49.00;37.67;24.67
79038;PMS5003;68436;55.068;73.284;2024-03-07T13:50:31;49.25;38.75;25.50
79038;PMS5003;68436;55.068;73.284;2024-03-07T13:52:58;62.67;49.67;31.00
79038;PMS5003;68436;55.068;73.284;2024-03-07T13:56:26;53.50;40.25;25.25
79038;PMS5003;68436;55.068;73.284;2024-03-07T14:06:12;50.00;40.00;25.25
79038;PMS5003;68436;55.068;73.284;2024-03-07T14:17:12;92.75;74.00;42.00
79038;PMS5003;68436;55.068;73.284;2024-03-07T14:27:15;176.25;131.25;65.75
79038;PMS5003;68436;55.068;73.284;2024-03-07T14:32:17;156.00;119.00;61.75
79038;PMS5003;68436;55.068;73.284;2024-03-07T14:35:02;230.25;177.25;87.50
79038;PMS5003;68436;55.068;73.284;2024-03-07T14:40:23;49.25;36.50;23.75
79038;PMS5003;68436;55.068;73.284;2024-03-07T14:42:53;45.25;37.00;22.75
79038;PMS5003;68436;55.068;73.284;2024-03-07T14:45:23;45.50;35.75;22.50
79038;PMS5003;68436;55.068;73.284;2024-03-07T14:47:51;46.00;36.00;19.67
79038;PMS5003;68436;55.068;73.284;2024-03-07T14:50:21;45.00;34.75;22.00
79038;PMS5003;68436;55.068;73.284;2024-03-07T14:52:48;39.00;32.00;19.00